Time;durP1;ratioP1;P1;durP2;ratioP2;P2;SDS_P1;SDS_P2;PMS_P1;PMS_P2;Temp;Humidity;BMP_temperature;BMP_pressure;BME280_temperature;BME280_humidity;BME280_pressure;Samples;Min_cycle;Max_cycle;Signal;HPM_P1;HPM_P2
2023/07/28 00:02:25;;;;;;;1.10;1.00;;;;;;;-143.84;86.03;45155.69;4982471;28;20480;-55
2023/07/28 00:04:52;;;;;;;1.57;1.47;;;;;;;-143.84;85.70;45142.38;4982966;28;20452;-55
2023/07/28 00:07:19;;;;;;;3.53;1.43;;;;;;;-143.84;85.48;45144.28;4982194;28;20464;-55
2023/07/28 00:09:46;;;;;;;1.37;1.27;;;;;;;-143.84;85.40;45191.88;4982196;28;20449;-56
2023/07/28 00:12:15;;;;;;;3.20;1.20;;;;;;;-143.84;85.12;45144.28;4982249;28;20449;-55
2023/07/28 00:14:42;;;;;;;2.87;1.60;;;;;;;-143.84;85.34;45165.22;4983927;28;20461;-55
2023/07/28 00:17:09;;;;;;;7.87;1.30;;;;;;;-143.84;85.25;45136.66;4985105;28;20473;-55
2023/07/28 00:19:36;;;;;;;2.03;1.13;;;;;;;-143.84;85.41;45174.75;4986218;28;20505;-55
2023/07/28 00:22:03;;;;;;;1.80;1.70;;;;;;;-143.84;85.60;45169.03;4986515;28;20504;-55
2023/07/28 00:24:30;;;;;;;1.40;1.30;;;;;;;-143.84;85.69;45174.75;4986417;28;20943;-55
2023/07/28 00:26:57;;;;;;;1.30;1.10;;;;;;;-143.84;85.77;45153.81;4989736;28;20445;-55
2023/07/28 00:29:26;;;;;;;2.80;1.20;;;;;;;-143.84;85.74;45170.94;4992865;28;20451;-55
2023/07/28 00:31:53;;;;;;;3.00;1.80;;;;;;;-143.84;85.70;45157.59;4992256;28;20445;-55
2023/07/28 00:34:20;;;;;;;3.37;1.47;;;;;;;-143.84;85.83;45178.56;4992689;28;20475;-55
2023/07/28 00:36:47;;;;;;;2.60;1.63;;;;;;;-143.84;85.67;45157.59;4992954;28;20449;-55
2023/07/28 00:39:14;;;;;;;4.03;2.07;;;;;;;-143.84;85.69;45148.09;4992923;28;20484;-55
2023/07/28 00:41:41;;;;;;;1.93;1.47;;;;;;;-143.84;85.59;45159.50;4992981;28;20559;-55
2023/07/28 00:44:09;;;;;;;1.47;1.37;;;;;;;-143.84;85.64;45151.91;4992718;28;20501;-55
2023/07/28 00:46:37;;;;;;;1.40;1.30;;;;;;;-143.84;85.56;45165.22;4993209;28;20440;-55
2023/07/28 00:49:04;;;;;;;1.70;1.33;;;;;;;-143.84;85.44;45146.19;4993062;28;20480;-55
2023/07/28 00:51:32;;;;;;;1.60;1.50;;;;;;;-143.84;85.20;45161.41;4993280;28;20441;-55
2023/07/28 00:54:01;;;;;;;1.47;1.37;;;;;;;-143.84;85.25;45165.22;4993078;28;20448;-55
2023/07/28 00:56:29;;;;;;;1.60;1.50;;;;;;;-143.84;85.11;45167.13;4992775;28;20957;-55
2023/07/28 00:58:57;;;;;;;1.83;1.70;;;;;;;-143.84;85.03;45191.88;4992648;28;20485;-55
2023/07/28 01:01:24;;;;;;;2.50;1.10;;;;;;;-143.84;84.89;45174.75;4992805;28;20444;-55
2023/07/28 01:03:53;;;;;;;1.60;1.50;;;;;;;-143.84;84.87;45161.41;4992370;28;21223;-55
2023/07/28 01:06:28;;;;;;;4.23;2.17;;;;;;;-143.84;84.71;45193.78;4992196;28;20444;-55
2023/07/28 01:09:00;;;;;;;1.37;1.27;;;;;;;-143.84;84.57;45180.47;4992530;28;20436;-55
2023/07/28 01:11:27;;;;;;;1.50;1.30;;;;;;;-143.84;84.48;45155.69;4992587;28;20515;-55
2023/07/28 01:13:54;;;;;;;1.50;1.37;;;;;;;-143.84;84.29;45174.75;4992779;28;20445;-55
2023/07/28 01:16:21;;;;;;;1.70;1.60;;;;;;;-143.84;84.13;45151.91;4992483;28;20441;-55
2023/07/28 01:18:49;;;;;;;4.50;1.57;;;;;;;-143.84;83.63;45174.75;4992191;28;20587;-55
2023/07/28 01:21:22;;;;;;;3.00;1.43;;;;;;;-143.84;83.19;45178.56;4992452;28;21307;-55
2023/07/28 01:24:00;;;;;;;2.83;1.70;;;;;;;-143.84;83.04;45184.25;4992494;28;20789;-55
2023/07/28 01:26:33;;;;;;;1.50;1.40;;;;;;;-143.84;82.95;45159.50;4991759;28;20444;-55
2023/07/28 01:29:01;;;;;;;5.20;1.40;;;;;;;-143.84;82.66;45150.00;4992480;28;20880;-55
2023/07/28 01:31:29;;;;;;;2.03;1.50;;;;;;;-143.84;82.62;45169.03;4992394;28;20533;-55
2023/07/28 01:33:56;;;;;;;3.00;1.30;;;;;;;-143.84;82.23;45155.69;4992031;28;20448;-55
2023/07/28 01:36:23;;;;;;;1.97;1.40;;;;;;;-143.84;82.39;45153.81;4992126;28;20496;-55
2023/07/28 01:38:50;;;;;;;2.60;1.67;;;;;;;-143.84;82.18;45159.50;4991955;28;20484;-55
2023/07/28 01:41:17;;;;;;;2.53;1.30;;;;;;;-143.84;82.19;45178.56;4991889;28;20441;-55
2023/07/28 01:43:46;;;;;;;3.10;1.47;;;;;;;-143.84;82.24;45140.47;4992196;28;20443;-55
2023/07/28 01:46:13;;;;;;;3.33;1.83;;;;;;;-143.84;82.27;45161.41;4992271;28;20446;-55
2023/07/28 01:48:40;;;;;;;1.70;1.60;;;;;;;-143.84;82.01;45157.59;4992195;28;20441;-55
2023/07/28 01:51:07;;;;;;;1.97;1.30;;;;;;;-143.84;82.11;45165.22;4991647;28;20450;-55
2023/07/28 01:53:34;;;;;;;3.53;1.30;;;;;;;-143.84;82.04;45157.59;4991629;28;20500;-55
2023/07/28 01:56:01;;;;;;;4.30;1.40;;;;;;;-143.84;82.18;45146.19;4991644;28;20509;-55
2023/07/28 01:58:29;;;;;;;3.87;1.40;;;;;;;-143.84;82.29;45169.03;4991662;28;20485;-55
2023/07/28 02:00:57;;;;;;;1.70;1.60;;;;;;;-143.84;82.46;45165.22;4991572;28;20492;-55
2023/07/28 02:03:24;;;;;;;3.03;1.57;;;;;;;-143.84;82.48;45178.56;4991227;28;20550;-55
2023/07/28 02:05:52;;;;;;;4.83;1.70;;;;;;;-143.84;82.90;45155.69;4991305;28;20441;-55
2023/07/28 02:08:19;;;;;;;5.27;1.50;;;;;;;-143.84;82.93;45197.59;4991660;28;20441;-55
2023/07/28 02:10:46;;;;;;;1.67;1.50;;;;;;;-143.84;83.34;45174.75;4991451;28;20444;-55
2023/07/28 02:13:13;;;;;;;5.20;1.87;;;;;;;-143.84;83.61;45165.22;4991312;28;20446;-55
2023/07/28 02:15:40;;;;;;;1.50;1.40;;;;;;;-143.84;83.92;45157.59;4991085;28;20437;-55
2023/07/28 02:18:09;;;;;;;4.40;1.53;;;;;;;-143.84;83.85;45148.09;4990865;28;20448;-55
2023/07/28 02:20:37;;;;;;;4.03;2.17;;;;;;;-143.84;84.00;45169.03;4990848;28;20449;-50
2023/07/28 02:23:04;;;;;;;4.67;1.53;;;;;;;-143.84;84.05;45189.97;4991135;28;20452;-49
2023/07/28 02:25:31;;;;;;;3.10;1.40;;;;;;;-143.84;84.51;45176.66;4991306;28;20445;-49
2023/07/28 02:27:59;;;;;;;1.93;1.57;;;;;;;-143.84;84.52;45146.19;4991374;28;20456;-49
2023/07/28 02:30:26;;;;;;;2.90;1.70;;;;;;;-143.84;84.55;45189.97;4991100;28;20488;-50
2023/07/28 02:32:53;;;;;;;3.33;1.67;;;;;;;-143.84;84.25;45153.81;4990986;28;20460;-50
2023/07/28 02:35:21;;;;;;;2.27;1.80;;;;;;;-143.84;84.34;45136.66;4991103;28;20508;-50
2023/07/28 02:37:48;;;;;;;1.87;1.50;;;;;;;-143.84;84.64;45186.16;4990086;28;20445;-49
2023/07/28 02:40:16;;;;;;;2.40;1.43;;;;;;;-143.84;84.55;45153.81;4990889;28;20488;-50
2023/07/28 02:42:43;;;;;;;2.10;1.90;;;;;;;-143.84;84.51;45186.16;4990989;28;20503;-49
2023/07/28 02:45:11;;;;;;;8.50;1.80;;;;;;;-143.84;84.46;45176.66;4990878;28;20444;-49
2023/07/28 02:47:38;;;;;;;3.10;2.00;;;;;;;-143.84;84.61;45186.16;4990774;28;20437;-49
2023/07/28 02:50:05;;;;;;;5.30;2.20;;;;;;;-143.84;84.53;45148.09;4989509;28;20441;-49
2023/07/28 02:52:34;;;;;;;1.57;1.47;;;;;;;-143.84;84.32;45184.25;4989858;28;20541;-49
2023/07/28 02:55:01;;;;;;;2.67;2.00;;;;;;;-143.84;84.20;45174.75;4990497;28;20472;-49
2023/07/28 02:57:28;;;;;;;3.50;1.50;;;;;;;-143.84;84.33;45151.91;4989830;28;20440;-49
2023/07/28 02:59:55;;;;;;;2.03;1.33;;;;;;;-143.84;84.01;45174.75;4989690;28;21009;-49
2023/07/28 03:02:22;;;;;;;2.77;2.40;;;;;;;-143.84;83.95;45157.59;4990293;28;20456;-49
2023/07/28 03:04:50;;;;;;;7.03;1.87;;;;;;;-143.84;84.04;45159.50;4990778;28;20844;-50
2023/07/28 03:07:17;;;;;;;5.00;1.70;;;;;;;-143.84;83.55;45169.03;4990614;28;20446;-51
2023/07/28 03:09:45;;;;;;;2.63;1.57;;;;;;;-143.84;83.53;45163.31;4990577;28;20441;-50
2023/07/28 03:12:13;;;;;;;1.80;1.70;;;;;;;-143.84;83.58;45191.88;4990459;28;20445;-50
2023/07/28 03:14:40;;;;;;;1.97;1.77;;;;;;;-143.84;83.65;45157.59;4990633;28;20448;-49
2023/07/28 03:17:07;;;;;;;1.60;1.50;;;;;;;-143.84;83.92;45144.28;4990093;28;20460;-48
2023/07/28 03:19:34;;;;;;;6.23;1.80;;;;;;;-143.84;84.13;45169.03;4990721;28;20476;-49
2023/07/28 03:22:01;;;;;;;2.00;1.80;;;;;;;-143.84;84.42;45172.84;4990322;28;20512;-49
2023/07/28 03:24:28;;;;;;;2.43;1.70;;;;;;;-143.84;84.54;45167.13;4989626;28;20453;-49
2023/07/28 03:26:57;;;;;;;1.77;1.60;;;;;;;-143.84;84.61;45163.31;4990572;28;20449;-49
2023/07/28 03:29:24;;;;;;;1.80;1.70;;;;;;;-143.84;83.88;45153.81;4989990;28;20500;-49
2023/07/28 03:31:51;;;;;;;3.90;1.30;;;;;;;-143.84;82.25;45174.75;4990057;28;20445;-49
2023/07/28 03:34:18;;;;;;;1.60;1.40;;;;;;;-143.84;78.46;45146.19;4989317;28;20849;-50
2023/07/28 03:36:45;;;;;;;1.67;1.57;;;;;;;-143.84;75.86;45142.38;4988786;28;20519;-51
2023/07/28 03:39:12;;;;;;;2.23;2.03;;;;;;;-143.84;73.56;45136.66;4989905;28;20489;-51
2023/07/28 03:41:40;;;;;;;1.27;1.17;;;;;;;-143.84;72.53;45119.53;4989715;28;20445;-50
2023/07/28 03:44:08;;;;;;;4.80;1.77;;;;;;;-143.84;71.14;45132.84;4975791;28;20508;-51
2023/07/28 03:46:35;;;;;;;2.37;2.17;;;;;;;-143.84;70.20;45113.81;4970393;28;20867;-51
2023/07/28 03:49:02;;;;;;;2.87;1.53;;;;;;;-143.84;67.10;45125.22;4979984;28;20451;-58
2023/07/28 03:51:29;;;;;;;1.57;1.47;;;;;;;-143.84;61.55;45123.34;4988923;28;20439;-58
2023/07/28 03:53:56;;;;;;;7.13;2.10;;;;;;;-143.84;57.00;45125.22;4987918;28;21094;-58
2023/07/28 03:56:23;;;;;;;1.17;1.03;;;;;;;-143.84;53.58;45110.00;4988634;28;20492;-58
2023/07/28 03:58:51;;;;;;;3.17;1.50;;;;;;;-143.84;51.35;45075.72;4988473;28;20445;-58
2023/07/28 04:01:21;;;;;;;1.63;1.43;;;;;;;-143.84;49.20;45092.88;4989252;28;20448;-59
2023/07/28 04:03:48;;;;;;;2.00;1.80;;;;;;;-143.84;48.17;45117.63;4987911;28;20490;-59
2023/07/28 04:06:15;;;;;;;1.40;1.30;;;;;;;-143.84;47.06;45104.28;4987826;28;20496;-59
2023/07/28 04:08:42;;;;;;;3.80;1.83;;;;;;;-143.84;46.90;45075.72;4989546;28;21003;-59
2023/07/28 04:11:09;;;;;;;3.13;1.93;;;;;;;-143.84;47.06;45058.59;4990025;28;20450;-58
2023/07/28 04:13:36;;;;;;;1.83;1.43;;;;;;;-143.84;47.46;45073.81;4990148;28;20441;-59
2023/07/28 04:16:04;;;;;;;2.07;1.30;;;;;;;-143.84;47.40;45102.38;4989779;28;20452;-58
2023/07/28 04:18:32;;;;;;;1.73;1.63;;;;;;;-143.84;47.56;45064.31;4989544;28;20438;-59
2023/07/28 04:20:59;;;;;;;2.40;1.40;;;;;;;-143.84;46.68;45104.28;4989718;28;20884;-59
2023/07/28 04:23:27;;;;;;;1.40;1.20;;;;;;;-143.84;47.22;45066.22;4989877;28;20446;-58
2023/07/28 04:25:54;;;;;;;1.33;1.07;;;;;;;-143.84;47.40;45096.66;4989481;28;20447;-59
2023/07/28 04:28:24;;;;;;;1.70;1.60;;;;;;;-143.84;47.25;45083.34;4990235;28;20520;-58
2023/07/28 04:30:51;;;;;;;4.50;1.93;;;;;;;-143.84;47.47;45077.63;4990128;28;21026;-58
2023/07/28 04:33:18;;;;;;;2.70;1.90;;;;;;;-143.84;47.43;45083.34;4990138;28;20444;-58
2023/07/28 04:35:47;;;;;;;6.50;2.17;;;;;;;-143.84;48.78;45098.56;4989636;28;20494;-58
2023/07/28 04:38:14;;;;;;;8.07;2.70;;;;;;;-143.84;50.10;45096.66;4989696;28;20936;-58
2023/07/28 04:40:41;;;;;;;4.77;2.33;;;;;;;-143.84;51.48;45089.06;4989720;28;20541;-51
2023/07/28 04:43:08;;;;;;;3.50;2.60;;;;;;;-143.84;52.25;45096.66;4989322;28;20991;-51
2023/07/28 04:45:35;;;;;;;7.43;2.83;;;;;;;-143.84;53.60;45085.25;4989524;28;20446;-51
2023/07/28 04:48:03;;;;;;;5.23;2.53;;;;;;;-143.84;54.06;45087.16;4989436;28;20446;-51
2023/07/28 04:50:32;;;;;;;3.00;2.20;;;;;;;-143.84;54.58;45079.53;4989408;28;20447;-50
2023/07/28 04:53:00;;;;;;;2.37;2.17;;;;;;;-143.84;55.42;45096.66;4988936;28;20526;-50
2023/07/28 04:55:27;;;;;;;3.00;2.43;;;;;;;-143.84;55.95;45115.72;4988847;28;20818;-51
2023/07/28 04:57:55;;;;;;;4.57;2.30;;;;;;;-143.84;56.37;45106.19;4988650;28;20481;-50
2023/07/28 05:00:22;;;;;;;4.33;1.80;;;;;;;-143.84;56.22;45108.09;4989519;28;20481;-51
2023/07/28 05:02:50;;;;;;;4.00;2.63;;;;;;;-143.84;55.73;45066.22;4992870;28;20491;-50
2023/07/28 05:05:17;;;;;;;5.60;1.70;;;;;;;-143.84;56.32;45127.13;4993013;28;20439;-54
2023/07/28 05:07:44;;;;;;;2.13;1.87;;;;;;;-143.84;55.99;45090.97;4992661;28;20458;-55
2023/07/28 05:10:13;;;;;;;2.53;2.13;;;;;;;-143.84;56.13;45092.88;4993107;28;20451;-49
2023/07/28 05:12:40;;;;;;;1.90;1.70;;;;;;;-143.84;56.64;45098.56;4992683;28;20448;-51
2023/07/28 05:15:10;;;;;;;2.60;2.13;;;;;;;-143.84;56.73;45092.88;4992661;28;20805;-49
2023/07/28 05:17:37;;;;;;;3.50;2.10;;;;;;;-143.84;56.90;45098.56;4992458;28;20448;-50
2023/07/28 05:20:04;;;;;;;8.33;2.30;;;;;;;-143.84;56.46;45087.16;4992422;28;20486;-51
2023/07/28 05:22:31;;;;;;;1.90;1.80;;;;;;;-143.84;55.73;45081.44;4992551;28;20443;-50
2023/07/28 05:24:59;;;;;;;5.20;1.97;;;;;;;-143.84;53.75;45094.78;4992505;28;20502;-51
2023/07/28 05:27:27;;;;;;;3.43;2.33;;;;;;;-143.84;53.98;45102.38;4992511;28;20444;-49
2023/07/28 05:29:54;;;;;;;3.07;2.70;;;;;;;-143.84;54.10;45106.19;4992497;28;20454;-50
2023/07/28 05:32:21;;;;;;;2.57;2.00;;;;;;;-143.84;53.85;45087.16;4992181;28;20444;-50
2023/07/28 05:34:48;;;;;;;3.50;2.17;;;;;;;-143.84;54.97;45090.97;4992471;28;20953;-49
2023/07/28 05:37:15;;;;;;;8.00;2.20;;;;;;;-143.84;55.00;45079.53;4992435;28;20874;-51
2023/07/28 05:39:44;;;;;;;6.10;2.30;;;;;;;-143.84;54.64;45085.25;4992376;28;20510;-51
2023/07/28 05:42:11;;;;;;;4.40;2.37;;;;;;;-143.84;56.34;45106.19;4992253;28;20911;-51
2023/07/28 05:44:39;;;;;;;4.30;2.40;;;;;;;-143.84;55.49;45079.53;4992140;28;20456;-51
2023/07/28 05:47:07;;;;;;;6.40;2.27;;;;;;;-143.84;55.53;45098.56;4991749;28;20475;-55
2023/07/28 05:49:34;;;;;;;4.07;2.30;;;;;;;-143.84;55.41;45104.28;4991226;28;20449;-56
2023/07/28 05:52:01;;;;;;;3.97;2.17;;;;;;;-143.84;55.52;45075.72;4990950;28;20506;-55
2023/07/28 05:54:28;;;;;;;2.40;2.20;;;;;;;-143.84;55.75;45104.28;4991705;28;20443;-55
2023/07/28 05:56:55;;;;;;;6.63;2.03;;;;;;;-143.84;54.81;45098.56;4991657;28;20493;-55
2023/07/28 05:59:22;;;;;;;1.90;1.80;;;;;;;-143.84;53.86;45071.91;4991548;28;20513;-55
2023/07/28 06:01:51;;;;;;;2.70;2.30;;;;;;;-143.84;53.04;45070.00;4991528;28;20506;-55
2023/07/28 06:04:18;;;;;;;4.70;2.77;;;;;;;-143.84;51.51;45087.16;4991489;28;20498;-55
2023/07/28 06:06:45;;;;;;;6.33;2.20;;;;;;;-143.84;52.47;45070.00;4991360;28;20510;-55
2023/07/28 06:09:12;;;;;;;6.77;2.87;;;;;;;-143.84;51.64;45087.16;4991595;28;20812;-55
2023/07/28 06:11:39;;;;;;;4.73;2.70;;;;;;;-143.84;51.73;45062.41;4990554;28;20495;-55
2023/07/28 06:14:06;;;;;;;4.83;2.00;;;;;;;-143.84;50.17;45041.44;4991498;28;20440;-51
2023/07/28 06:16:33;;;;;;;11.40;2.73;;;;;;;-143.84;50.00;45056.69;4991294;28;20867;-51
2023/07/28 06:19:04;;;;;;;9.20;2.43;;;;;;;-143.84;48.74;45045.25;4991401;28;20449;-50
2023/07/28 06:21:31;;;;;;;3.67;2.40;;;;;;;-143.84;46.92;45049.06;4991687;28;20520;-54
2023/07/28 06:23:58;;;;;;;2.40;2.00;;;;;;;-143.84;45.75;45052.88;4990974;28;20515;-55
2023/07/28 06:26:25;;;;;;;3.27;2.70;;;;;;;-143.84;45.81;45033.84;4990915;28;20452;-55
2023/07/28 06:28:52;;;;;;;3.20;2.00;;;;;;;-143.84;45.82;45031.94;4991237;28;20438;-55
2023/07/28 06:31:19;;;;;;;5.80;2.33;;;;;;;-143.84;45.29;45037.66;4991026;28;20519;-55
2023/07/28 06:33:48;;;;;;;3.93;1.90;;;;;;;-143.84;45.38;45054.78;4990951;28;20445;-55
2023/07/28 06:36:17;;;;;;;6.10;2.27;;;;;;;-143.84;45.50;45026.22;4990892;28;20480;-55
2023/07/28 06:38:48;;;;;;;3.03;2.10;;;;;;;-143.84;45.15;45085.25;4990982;28;20461;-55
2023/07/28 06:41:15;;;;;;;5.37;2.03;;;;;;;-143.84;44.93;45031.94;4990604;28;20524;-55
2023/07/28 06:43:42;;;;;;;5.83;2.40;;;;;;;-143.84;44.30;45049.06;4990745;28;20511;-55
2023/07/28 06:46:09;;;;;;;10.63;2.37;;;;;;;-143.84;43.25;45024.31;4990921;28;20433;-55
2023/07/28 06:48:36;;;;;;;6.30;2.67;;;;;;;-143.84;43.16;45020.50;4990649;28;20449;-55
2023/07/28 06:51:03;;;;;;;2.30;2.10;;;;;;;-143.84;42.34;45010.97;4990663;28;20971;-55
2023/07/28 06:53:32;;;;;;;4.00;2.07;;;;;;;-143.84;42.54;45007.19;4990591;28;20512;-55
2023/07/28 06:55:59;;;;;;;5.53;1.90;;;;;;;-143.84;41.94;45005.28;4990444;28;20865;-55
2023/07/28 06:58:26;;;;;;;2.57;1.50;;;;;;;-143.84;41.17;44984.31;4990692;28;20439;-55
2023/07/28 07:00:55;;;;;;;3.40;1.80;;;;;;;-143.84;40.44;45009.09;4990295;28;20476;-55
2023/07/28 07:03:22;;;;;;;2.40;2.30;;;;;;;-143.84;40.89;44984.31;4990316;28;20559;-55
2023/07/28 07:05:50;;;;;;;6.03;2.90;;;;;;;-143.84;40.95;44991.94;5207470;23;20538;-54
2023/07/28 07:08:17;;;;;;;5.53;2.23;;;;;;;-143.84;40.99;44980.53;4990400;28;20442;-54
2023/07/28 07:10:51;;;;;;;6.10;2.87;;;;;;;-143.84;41.28;44974.81;4990436;28;20440;-54
2023/07/28 07:13:18;;;;;;;3.30;2.30;;;;;;;-143.84;42.54;45018.59;4990423;28;20938;-54
2023/07/28 07:15:45;;;;;;;5.37;3.03;;;;;;;-143.84;43.45;45012.88;4990092;28;20527;-53
2023/07/28 07:18:13;;;;;;;9.90;2.67;;;;;;;-143.84;43.02;45028.13;4989784;28;20452;-54
2023/07/28 07:20:40;;;;;;;7.60;3.57;;;;;;;-143.84;43.65;45030.03;4989984;28;20504;-53
2023/07/28 07:23:07;;;;;;;13.83;4.00;;;;;;;-143.84;43.66;45035.75;4989633;28;21072;-54
2023/07/28 07:25:34;;;;;;;12.83;3.40;;;;;;;-143.84;44.24;45030.03;4990007;28;20536;-54
2023/07/28 07:28:03;;;;;;;4.70;3.17;;;;;;;-143.84;42.88;45020.50;4989829;28;20607;-54
2023/07/28 07:30:33;;;;;;;3.93;3.60;;;;;;;-143.84;44.66;45026.22;4990330;28;20527;-54
2023/07/28 07:33:00;;;;;;;5.20;4.50;;;;;;;-143.84;42.73;45014.78;4990009;28;20441;-54
2023/07/28 07:35:27;;;;;;;22.90;5.13;;;;;;;-143.84;44.76;45009.09;4989871;28;20449;-54
2023/07/28 07:37:54;;;;;;;8.93;4.20;;;;;;;-143.84;43.26;45001.47;4989900;28;20449;-54
2023/07/28 07:40:23;;;;;;;7.07;4.50;;;;;;;-143.84;44.19;44999.56;4989875;28;20484;-54
2023/07/28 07:42:51;;;;;;;9.20;5.50;;;;;;;-143.84;43.10;45020.50;4989755;28;20510;-54
2023/07/28 07:45:19;;;;;;;12.07;5.17;;;;;;;-143.84;44.85;45022.41;4990080;28;20456;-54
2023/07/28 07:47:46;;;;;;;13.53;5.00;;;;;;;-143.84;43.28;45026.22;4990101;28;20485;-54
2023/07/28 07:50:13;;;;;;;12.50;4.53;;;;;;;-143.84;45.10;45018.59;4989545;28;20445;-53
2023/07/28 07:52:41;;;;;;;5.70;4.60;;;;;;;-143.84;44.41;45028.13;4989408;28;20500;-54
2023/07/28 07:55:10;;;;;;;14.93;4.97;;;;;;;-143.84;45.43;45022.41;4989534;28;20452;-54
2023/07/28 07:57:37;;;;;;;7.43;4.43;;;;;;;-143.84;45.49;45007.19;4989640;28;20504;-54
2023/07/28 08:00:05;;;;;;;15.80;5.50;;;;;;;-143.84;44.36;45039.53;4989452;28;20454;-54
2023/07/28 08:02:34;;;;;;;8.33;5.40;;;;;;;-143.84;43.67;45035.75;4989715;28;20445;-54
2023/07/28 08:05:02;;;;;;;6.17;4.70;;;;;;;-143.84;43.81;45010.97;4989237;28;20492;-54
2023/07/28 08:07:29;;;;;;;9.13;4.53;;;;;;;-143.84;42.39;45037.66;4990876;28;20457;-54
2023/07/28 08:09:56;;;;;;;9.93;4.00;;;;;;;-143.84;42.99;45014.78;4991019;28;20441;-53
2023/07/28 08:12:24;;;;;;;8.83;3.93;;;;;;;-143.84;44.08;45016.69;4991115;28;20456;-54
2023/07/28 08:14:51;;;;;;;5.73;2.60;;;;;;;-143.84;43.67;45024.31;4991017;28;20549;-54
2023/07/28 08:17:18;;;;;;;9.97;4.07;;;;;;;-143.84;41.81;45024.31;4991047;28;20511;-54
2023/07/28 08:19:47;;;;;;;5.80;3.60;;;;;;;-143.84;41.26;45005.28;4991267;28;20509;-54
2023/07/28 08:22:14;;;;;;;14.87;3.70;;;;;;;-143.84;40.88;44999.56;4991117;28;21057;-54
2023/07/28 08:24:41;;;;;;;16.73;4.37;;;;;;;-143.84;41.80;45007.19;4990929;28;20511;-54
2023/07/28 08:27:08;;;;;;;11.43;2.70;;;;;;;-143.84;43.05;45039.53;4991041;28;20445;-53
2023/07/28 08:29:35;;;;;;;8.77;2.80;;;;;;;-143.84;40.64;45031.94;4991066;28;20499;-54
2023/07/28 08:32:02;;;;;;;16.07;3.30;;;;;;;-143.84;40.40;45007.19;4990982;28;20853;-54
2023/07/28 08:34:30;;;;;;;7.07;2.20;;;;;;;-143.84;41.76;45022.41;4991080;28;20455;-54
2023/07/28 08:36:58;;;;;;;2.80;2.33;;;;;;;-143.84;39.84;45005.28;4994675;28;20843;-54
2023/07/28 08:39:25;;;;;;;4.20;2.10;;;;;;;-143.84;38.06;45001.47;4994863;28;20453;-54
2023/07/28 08:42:00;;;;;;;2.20;2.00;;;;;;;-143.84;38.27;44993.84;4994747;28;20494;-54
2023/07/28 08:44:27;;;;;;;6.07;2.13;;;;;;;-143.84;39.69;45020.50;4994606;28;20458;-54
2023/07/28 08:46:55;;;;;;;5.00;1.50;;;;;;;-143.84;39.58;44972.91;4994541;28;20931;-53
2023/07/28 08:49:22;;;;;;;4.03;1.77;;;;;;;-143.84;39.49;45007.19;4991710;28;20530;-49
2023/07/28 08:51:51;;;;;;;10.70;1.93;;;;;;;-143.84;38.32;45016.69;4994779;28;20476;-58
2023/07/28 08:54:20;;;;;;;2.80;1.70;;;;;;;-143.84;38.65;44993.84;4994687;28;20564;-58
2023/07/28 08:56:47;;;;;;;5.10;1.90;;;;;;;-143.84;38.32;45003.38;4994435;28;20892;-58
2023/07/28 08:59:22;;;;;;;3.53;2.20;;;;;;;-143.84;38.17;44986.22;4994306;28;20475;-58
2023/07/28 09:01:51;;;;;;;2.70;1.63;;;;;;;-143.84;37.87;45043.34;4994153;28;20534;-58
2023/07/28 09:04:18;;;;;;;4.33;1.60;;;;;;;-143.84;38.61;45012.88;4993854;28;20448;-58
2023/07/28 09:06:46;;;;;;;5.03;1.90;;;;;;;-143.84;37.80;44978.63;4993271;28;20558;-58
2023/07/28 09:09:14;;;;;;;1.87;1.77;;;;;;;-143.84;37.59;44999.56;4993047;28;20436;-58
2023/07/28 09:11:47;;;;;;;3.17;1.40;;;;;;;-143.84;35.67;44997.66;4992781;28;20514;-58
2023/07/28 09:14:16;;;;;;;5.13;2.20;;;;;;;-143.84;37.90;44991.94;4992692;28;20444;-58
2023/07/28 09:16:43;;;;;;;3.50;1.50;;;;;;;-143.84;38.04;44990.03;4992572;28;20536;-58
2023/07/28 09:19:11;;;;;;;1.67;1.57;;;;;;;-143.84;37.77;44978.63;4992075;28;20441;-58
2023/07/28 09:21:40;;;;;;;1.57;1.47;;;;;;;-143.84;37.34;44999.56;4992780;28;20578;-58
2023/07/28 09:24:08;;;;;;;4.30;1.73;;;;;;;-143.84;36.43;44974.81;4992685;28;20520;-58
2023/07/28 09:26:39;;;;;;;4.40;1.90;;;;;;;-143.84;36.79;44984.31;4992505;28;20436;-58
2023/07/28 09:29:15;;;;;;;5.03;1.80;;;;;;;-143.84;36.58;44980.53;4992756;28;20448;-58
2023/07/28 09:31:42;;;;;;;6.70;1.73;;;;;;;-143.84;36.09;44980.53;4992471;28;20557;-58
2023/07/28 09:34:10;;;;;;;5.80;1.60;;;;;;;-143.84;34.96;44991.94;4992037;28;20982;-58
2023/07/28 09:36:38;;;;;;;3.57;1.60;;;;;;;-143.84;36.64;44965.28;4992832;28;20513;-58
2023/07/28 09:39:08;;;;;;;3.43;1.60;;;;;;;-143.84;36.79;44999.56;4992091;28;20547;-58
2023/07/28 09:41:37;;;;;;;2.30;1.73;;;;;;;-143.84;38.80;44999.56;4992509;28;20993;-58
2023/07/28 09:44:05;;;;;;;14.40;2.07;;;;;;;-143.84;36.63;44995.75;4992920;28;20443;-58
2023/07/28 09:46:35;;;;;;;4.30;1.60;;;;;;;-143.84;35.81;44984.31;4992371;28;21174;-58
2023/07/28 09:49:06;;;;;;;3.30;2.07;;;;;;;-143.84;34.90;44957.66;4992333;28;20823;-58
2023/07/28 09:51:37;;;;;;;2.97;1.70;;;;;;;-143.84;35.39;44971.00;4992619;28;20445;-58
2023/07/28 09:54:06;;;;;;;5.30;2.00;;;;;;;-143.84;34.95;44982.41;4992486;28;20445;-58
2023/07/28 09:56:34;;;;;;;2.03;1.93;;;;;;;-143.84;36.60;44965.28;4992168;28;20450;-58
2023/07/28 09:59:04;;;;;;;5.67;2.20;;;;;;;-143.84;36.41;44993.84;4991841;28;20444;-58
2023/07/28 10:01:33;;;;;;;2.20;2.00;;;;;;;-143.84;37.21;44959.56;4991826;28;21001;-58
2023/07/28 10:04:01;;;;;;;6.53;1.80;;;;;;;-143.84;39.14;44963.38;4992111;28;20448;-58
2023/07/28 10:06:31;;;;;;;8.20;2.10;;;;;;;-143.84;42.99;44982.41;4991665;28;20484;-58
2023/07/28 10:08:58;;;;;;;3.00;2.23;;;;;;;-143.84;43.48;45005.28;4991769;28;20452;-58
2023/07/28 10:11:26;;;;;;;2.13;1.90;;;;;;;-143.84;41.41;44969.09;4991677;28;21272;-58
2023/07/28 10:13:55;;;;;;;6.30;2.40;;;;;;;-143.84;41.80;45003.38;4987747;28;21652;-58
2023/07/28 10:16:38;;;;;;;7.67;1.43;;;;;;;-143.84;42.11;44974.81;4971818;28;20453;-54
2023/07/28 10:19:05;;;;;;;3.53;1.67;;;;;;;-143.84;42.83;44993.84;4971830;28;20445;-53
2023/07/28 10:21:32;;;;;;;1.67;1.57;;;;;;;-143.84;44.41;45043.34;4971834;28;20490;-53
2023/07/28 10:24:00;;;;;;;2.13;1.93;;;;;;;-143.84;45.38;45022.41;4971655;28;20442;-53
2023/07/28 10:26:36;;;;;;;2.60;2.40;;;;;;;-143.84;46.00;45031.94;4971050;28;20450;-53
2023/07/28 10:29:14;;;;;;;9.57;1.60;;;;;;;-143.84;45.30;45014.78;4971712;28;20430;-53
2023/07/28 10:31:53;;;;;;;2.00;1.60;;;;;;;-143.84;46.35;45012.88;4971333;28;20905;-53
2023/07/28 10:34:22;;;;;;;3.37;2.17;;;;;;;-143.84;47.01;45043.34;4971725;28;20880;-53
2023/07/28 10:36:58;;;;;;;6.93;2.10;;;;;;;-143.84;48.60;45030.03;4971374;28;20809;-54
2023/07/28 10:39:25;;;;;;;4.13;1.70;;;;;;;-143.84;48.25;45049.06;4971509;28;20488;-53
2023/07/28 10:42:04;;;;;;;1.67;1.57;;;;;;;-143.84;48.71;45037.66;4970689;28;20473;-53
2023/07/28 10:44:32;;;;;;;2.80;1.67;;;;;;;-143.84;47.81;45043.34;4971163;28;20449;-53
2023/07/28 10:47:00;;;;;;;2.70;1.80;;;;;;;-143.84;48.45;45041.44;4970993;28;20468;-53
2023/07/28 10:49:28;;;;;;;1.70;1.60;;;;;;;-143.84;49.31;45049.06;4971412;28;20529;-53
2023/07/28 10:51:55;;;;;;;2.73;2.00;;;;;;;-143.84;49.05;45039.53;4971204;28;20445;-53
2023/07/28 10:54:23;;;;;;;3.40;1.30;;;;;;;-143.84;51.63;45035.75;4971420;28;20845;-53
2023/07/28 10:56:50;;;;;;;1.77;1.60;;;;;;;-143.84;49.68;45022.41;4970527;28;20456;-53
2023/07/28 10:59:17;;;;;;;3.83;1.77;;;;;;;-143.84;50.05;45047.16;4970305;28;20844;-53
2023/07/28 11:01:44;;;;;;;3.33;2.10;;;;;;;-143.84;48.40;45054.78;4971002;28;20491;-53
2023/07/28 11:04:15;;;;;;;4.77;2.23;;;;;;;-143.84;53.45;45052.88;4971369;28;20439;-53
2023/07/28 11:06:43;;;;;;;7.00;1.60;;;;;;;-143.84;48.23;45047.16;4970818;28;20508;-53
2023/07/28 11:09:11;;;;;;;2.00;1.90;;;;;;;-143.84;48.75;45068.13;4970763;28;20437;-53
2023/07/28 11:11:38;;;;;;;2.90;2.00;;;;;;;-143.84;49.42;45030.03;4970129;28;20445;-53
2023/07/28 11:14:06;;;;;;;2.10;1.90;;;;;;;-143.84;48.41;45031.94;4970532;28;21398;-54
2023/07/28 11:16:35;;;;;;;2.03;1.80;;;;;;;-143.84;47.79;45041.44;4970792;28;20453;-54
2023/07/28 11:19:04;;;;;;;5.83;1.80;;;;;;;-143.84;49.81;45014.78;4970747;28;20521;-54
2023/07/28 11:21:37;;;;;;;2.93;1.60;;;;;;;-143.84;45.55;45054.78;4970722;28;20489;-53